Flag for USA

Past Weather in Palo Alto, California, USA — Yesterday and Last 2 Weeks

Currently: 46 °F. Partly cloudy. (Weather station: Moffett Field, USA). See more current weather

Past Weather in Palo Alto — Graph

°F

Palo Alto Temperature Yesterday

Maximum temperature yesterday: 52 °F (at 12:30 pm)
Minimum temperature yesterday: 34 °F (at 6:50 am)
Average temperature yesterday: 44 °F

High & Low Weather Summary for the Past Weeks

 TemperatureHumidityPressure
High79 °F (Jan 17, 2:35 pm)100% (Jan 14, 2:30 am)30.38 "Hg (Jan 14, 2:30 am)
Low34 °F (Jan 26, 6:50 am)10% (Jan 18, 12:55 pm)29.68 "Hg (Jan 27, 12:50 am)
Average52 °F64%30.03 "Hg
* Reported Jan 12 3:05 am — Jan 27 2:30 am, Palo Alto. Weather by CustomWeather, © 2021

Note: Actual official high and low records may vary slightly from our data, if they occured in-between our weather recording intervals... More about our weather records

Palo Alto Weather History for the Previous 24 Hours

Scroll right to see more
 ConditionsComfort  
Time TempWeatherWind HumidityBarometerVisibility
2:30 am
Wed, Jan 27
46 °FMostly cloudy.12 mph93%29.71 "Hg10 mi
2:10 am46 °FLight rain. Overcast.20 mph93%29.70 "Hg6 mi
1:50 am45 °FRain. Overcast.16 mph93%29.71 "Hg2 mi
1:30 am45 °FLight rain. Mostly cloudy.9 mph93%29.70 "Hg3 mi
1:15 am45 °FLight rain. Partly cloudy.18 mph93%29.68 "Hg3 mi
12:50 am45 °FLight rain. Overcast.22 mph93%29.68 "Hg2 mi
12:30 am45 °FRain. Mostly cloudy.21 mph93%29.69 "Hg3 mi
12:10 am45 °FLight rain. Mostly cloudy.22 mph93%29.69 "Hg3 mi
11:30 pm
Tue, Jan 26
45 °FLight rain. Mostly cloudy.22 mph87%29.70 "Hg4 mi
11:10 pm45 °FLight rain. Overcast.20 mph87%29.71 "Hg4 mi
10:50 pm45 °FFog.24 mph87%29.71 "Hg5 mi
9:50 pm43 °FLight rain. Mostly cloudy.15 mph87%29.73 "Hg4 mi
9:30 pm43 °FLight rain. Overcast.13 mph93%29.74 "Hg4 mi
9:10 pm45 °FLight rain. Overcast.14 mph81%29.75 "Hg6 mi
8:50 pm45 °FOvercast.12 mph81%29.75 "Hg10 mi
8:30 pm45 °FLight rain. Mostly cloudy.22 mph81%29.75 "Hg8 mi
8:10 pm45 °FOvercast.21 mph81%29.76 "Hg10 mi
7:50 pm45 °FMostly cloudy.16 mph81%29.78 "Hg10 mi
7:30 pm45 °FOvercast.16 mph81%29.79 "Hg10 mi
7:10 pm45 °FOvercast.14 mph81%29.81 "Hg10 mi
6:50 pm45 °FMostly cloudy.15 mph81%29.82 "Hg9 mi
6:30 pm45 °FMostly cloudy.16 mph81%29.83 "Hg7 mi
6:10 pm46 °FMostly cloudy.17 mph71%29.84 "Hg10 mi
5:50 pm46 °FOvercast.16 mph66%29.84 "Hg10 mi
5:35 pm46 °FOvercast.15 mph66%29.85 "Hg10 mi
5:10 pm46 °FMostly cloudy.16 mph66%29.86 "Hg10 mi
4:50 pm48 °FOvercast.17 mph62%29.87 "Hg10 mi
4:30 pm48 °FOvercast.12 mph62%29.88 "Hg10 mi
4:10 pm48 °FMostly cloudy.14 mph62%29.89 "Hg10 mi
3:50 pm48 °FCloudy.13 mph62%29.90 "Hg10 mi
3:30 pm48 °FMostly cloudy.12 mph66%29.91 "Hg10 mi
3:10 pm50 °FMore clouds than sun.15 mph58%29.92 "Hg10 mi
2:55 pm50 °FPartly sunny.13 mph58%29.93 "Hg10 mi
2:30 pm50 °FPartly sunny.9 mph58%29.93 "Hg10 mi
2:10 pm50 °FPartly sunny.14 mph58%29.93 "Hg10 mi
1:50 pm50 °FPartly sunny.8 mph58%29.94 "Hg10 mi
1:30 pm52 °FScattered clouds.6 mph50%29.95 "Hg10 mi
1:15 pm52 °FPartly sunny.9 mph50%29.96 "Hg10 mi
12:50 pm52 °FPartly sunny.13 mph50%29.96 "Hg10 mi
12:30 pm52 °FBroken clouds.9 mph54%29.97 "Hg10 mi
12:10 pm50 °FBroken clouds.8 mph54%29.98 "Hg10 mi
11:50 am50 °FBroken clouds.8 mph54%29.99 "Hg10 mi
11:30 am50 °FPartly sunny.9 mph54%30.00 "Hg10 mi
11:10 am50 °FPartly sunny.9 mph54%30.01 "Hg10 mi
10:50 am48 °FScattered clouds.9 mph58%30.01 "Hg10 mi
10:30 am48 °FPassing clouds.9 mph58%30.02 "Hg10 mi
10:10 am46 °FSunny.8 mph62%30.01 "Hg10 mi
9:50 am46 °FSunny.10 mph62%30.01 "Hg10 mi
9:30 am45 °FSunny.8 mph66%30.00 "Hg10 mi
9:10 am43 °FSunny.9 mph71%29.99 "Hg10 mi
8:50 am41 °FSunny.7 mph70%29.99 "Hg10 mi
8:30 am39 °FSunny.7 mph75%29.99 "Hg10 mi
7:50 am34 °FSunny.7 mph87%29.98 "Hg10 mi
7:30 am34 °FSunny.3 mph87%29.98 "Hg10 mi
7:10 am34 °FClear.5 mph87%29.97 "Hg10 mi
6:50 am34 °FClear.5 mph87%29.97 "Hg10 mi
6:30 am36 °FClear.No wind87%29.97 "Hg10 mi
6:10 am36 °FClear.No wind87%29.97 "Hg10 mi
5:50 am36 °FClear.No wind87%29.96 "Hg10 mi
5:30 am36 °FPassing clouds.No wind87%29.95 "Hg10 mi
5:15 am36 °FPassing clouds.No wind87%29.94 "Hg10 mi
4:50 am36 °FPassing clouds.No wind93%29.93 "Hg10 mi
4:30 am37 °FPassing clouds.No wind87%29.94 "Hg10 mi
4:10 am37 °FPassing clouds.No wind87%29.93 "Hg10 mi
3:50 am37 °FPassing clouds.No wind81%29.93 "Hg10 mi
3:30 am37 °FPassing clouds.No wind87%29.93 "Hg10 mi
3:10 am37 °FClear.No wind87%29.93 "Hg10 mi
Weather by CustomWeather, © 2021

See weather overview